sensor_id;sensor_type;location;lat;lon;timestamp;temperature;humidity
61201;DHT22;47065;52.898;6.992;2022-10-17T00:00:32;12.50;99.90
61201;DHT22;47065;52.898;6.992;2022-10-17T00:02:59;12.50;99.90
61201;DHT22;47065;52.898;6.992;2022-10-17T00:05:24;12.50;99.90
61201;DHT22;47065;52.898;6.992;2022-10-17T00:07:51;12.50;99.90
61201;DHT22;47065;52.898;6.992;2022-10-17T00:10:17;12.50;99.90
61201;DHT22;47065;52.898;6.992;2022-10-17T00:12:43;12.50;99.90
61201;DHT22;47065;52.898;6.992;2022-10-17T00:15:13;12.50;99.90
61201;DHT22;47065;52.898;6.992;2022-10-17T00:17:39;12.50;99.90
61201;DHT22;47065;52.898;6.992;2022-10-17T00:20:06;12.50;99.90
61201;DHT22;47065;52.898;6.992;2022-10-17T00:22:32;12.50;99.90
61201;DHT22;47065;52.898;6.992;2022-10-17T00:24:58;12.50;99.90
61201;DHT22;47065;52.898;6.992;2022-10-17T00:27:23;12.50;99.90
61201;DHT22;47065;52.898;6.992;2022-10-17T00:29:50;12.50;99.90
61201;DHT22;47065;52.898;6.992;2022-10-17T00:32:16;12.50;99.90
61201;DHT22;47065;52.898;6.992;2022-10-17T00:34:43;12.50;99.90
61201;DHT22;47065;52.898;6.992;2022-10-17T00:37:09;12.50;99.90
61201;DHT22;47065;52.898;6.992;2022-10-17T00:39:35;12.50;99.90
61201;DHT22;47065;52.898;6.992;2022-10-17T00:42:00;12.60;99.90
61201;DHT22;47065;52.898;6.992;2022-10-17T00:46:56;12.60;99.90
61201;DHT22;47065;52.898;6.992;2022-10-17T00:49:24;12.60;99.90
61201;DHT22;47065;52.898;6.992;2022-10-17T00:51:57;12.60;99.90
61201;DHT22;47065;52.898;6.992;2022-10-17T00:54:29;12.60;99.90
61201;DHT22;47065;52.898;6.992;2022-10-17T00:56:55;12.60;99.90
61201;DHT22;47065;52.898;6.992;2022-10-17T00:59:22;12.60;99.90
61201;DHT22;47065;52.898;6.992;2022-10-17T01:02:01;12.50;99.90
61201;DHT22;47065;52.898;6.992;2022-10-17T01:04:27;12.60;99.90
61201;DHT22;47065;52.898;6.992;2022-10-17T01:06:53;12.60;99.90
61201;DHT22;47065;52.898;6.992;2022-10-17T01:09:19;12.60;99.90
61201;DHT22;47065;52.898;6.992;2022-10-17T01:17:13;12.60;99.90
61201;DHT22;47065;52.898;6.992;2022-10-17T01:25:28;12.60;99.90
61201;DHT22;47065;52.898;6.992;2022-10-17T01:31:11;12.70;99.90
61201;DHT22;47065;52.898;6.992;2022-10-17T01:41:57;12.60;99.90
61201;DHT22;47065;52.898;6.992;2022-10-17T01:44:49;12.60;99.90
61201;DHT22;47065;52.898;6.992;2022-10-17T01:47:20;12.60;99.90
61201;DHT22;47065;52.898;6.992;2022-10-17T01:49:49;12.50;99.90
61201;DHT22;47065;52.898;6.992;2022-10-17T01:52:25;12.60;99.90
61201;DHT22;47065;52.898;6.992;2022-10-17T01:54:57;12.50;99.90
61201;DHT22;47065;52.898;6.992;2022-10-17T01:57:35;12.50;99.90
61201;DHT22;47065;52.898;6.992;2022-10-17T02:00:05;12.50;99.90
61201;DHT22;47065;52.898;6.992;2022-10-17T02:02:32;12.40;99.90
61201;DHT22;47065;52.898;6.992;2022-10-17T02:05:01;12.40;99.90
61201;DHT22;47065;52.898;6.992;2022-10-17T02:07:27;12.40;99.90
61201;DHT22;47065;52.898;6.992;2022-10-17T02:09:52;12.40;99.90
61201;DHT22;47065;52.898;6.992;2022-10-17T02:12:46;12.40;99.90
61201;DHT22;47065;52.898;6.992;2022-10-17T02:19:00;12.40;99.90
61201;DHT22;47065;52.898;6.992;2022-10-17T02:21:57;12.40;99.90
61201;DHT22;47065;52.898;6.992;2022-10-17T02:24:44;12.30;99.90
61201;DHT22;47065;52.898;6.992;2022-10-17T02:27:16;12.30;99.90
61201;DHT22;47065;52.898;6.992;2022-10-17T02:29:47;12.30;99.90
61201;DHT22;47065;52.898;6.992;2022-10-17T02:32:34;12.30;99.90
61201;DHT22;47065;52.898;6.992;2022-10-17T02:35:04;12.30;99.90
61201;DHT22;47065;52.898;6.992;2022-10-17T02:37:33;12.30;99.90
61201;DHT22;47065;52.898;6.992;2022-10-17T02:40:01;12.30;99.90
61201;DHT22;47065;52.898;6.992;2022-10-17T02:42:28;12.30;99.90
61201;DHT22;47065;52.898;6.992;2022-10-17T02:44:58;12.30;99.90
61201;DHT22;47065;52.898;6.992;2022-10-17T02:48:22;12.30;99.90
61201;DHT22;47065;52.898;6.992;2022-10-17T02:50:36;12.30;99.90
61201;DHT22;47065;52.898;6.992;2022-10-17T02:53:07;12.30;99.90
61201;DHT22;47065;52.898;6.992;2022-10-17T02:55:40;12.30;99.90
61201;DHT22;47065;52.898;6.992;2022-10-17T02:58:14;12.30;99.90
61201;DHT22;47065;52.898;6.992;2022-10-17T03:00:41;12.30;99.90
61201;DHT22;47065;52.898;6.992;2022-10-17T03:03:22;12.40;99.90
61201;DHT22;47065;52.898;6.992;2022-10-17T03:05:48;12.40;99.90
61201;DHT22;47065;52.898;6.992;2022-10-17T03:08:14;12.40;99.90
61201;DHT22;47065;52.898;6.992;2022-10-17T03:10:40;12.40;99.90
61201;DHT22;47065;52.898;6.992;2022-10-17T03:13:05;12.50;99.90
61201;DHT22;47065;52.898;6.992;2022-10-17T03:15:31;12.50;99.90
61201;DHT22;47065;52.898;6.992;2022-10-17T03:17:56;12.50;99.90
61201;DHT22;47065;52.898;6.992;2022-10-17T03:20:22;12.50;99.90
61201;DHT22;47065;52.898;6.992;2022-10-17T03:22:48;12.60;99.90
61201;DHT22;47065;52.898;6.992;2022-10-17T03:25:13;12.50;99.90
61201;DHT22;47065;52.898;6.992;2022-10-17T03:27:39;12.50;99.90
61201;DHT22;47065;52.898;6.992;2022-10-17T03:30:05;12.50;99.90
61201;DHT22;47065;52.898;6.992;2022-10-17T03:32:34;12.50;99.90
61201;DHT22;47065;52.898;6.992;2022-10-17T03:35:00;12.50;99.90
61201;DHT22;47065;52.898;6.992;2022-10-17T03:37:26;12.60;99.90
61201;DHT22;47065;52.898;6.992;2022-10-17T03:39:52;12.60;99.90
61201;DHT22;47065;52.898;6.992;2022-10-17T03:42:17;12.60;99.90
61201;DHT22;47065;52.898;6.992;2022-10-17T03:44:43;12.60;99.90
61201;DHT22;47065;52.898;6.992;2022-10-17T03:47:09;12.60;99.90
61201;DHT22;47065;52.898;6.992;2022-10-17T03:49:34;12.60;99.90
61201;DHT22;47065;52.898;6.992;2022-10-17T03:52:00;12.60;99.90
61201;DHT22;47065;52.898;6.992;2022-10-17T03:54:26;12.60;99.90
61201;DHT22;47065;52.898;6.992;2022-10-17T03:56:51;12.60;99.90
61201;DHT22;47065;52.898;6.992;2022-10-17T03:59:17;12.70;99.90
61201;DHT22;47065;52.898;6.992;2022-10-17T04:01:43;12.70;99.90
61201;DHT22;47065;52.898;6.992;2022-10-17T04:04:09;12.70;99.90
61201;DHT22;47065;52.898;6.992;2022-10-17T04:06:35;12.70;99.90
61201;DHT22;47065;52.898;6.992;2022-10-17T04:09:01;12.70;99.90
61201;DHT22;47065;52.898;6.992;2022-10-17T04:11:27;12.70;99.90
61201;DHT22;47065;52.898;6.992;2022-10-17T04:13:54;12.80;99.90
61201;DHT22;47065;52.898;6.992;2022-10-17T04:16:20;12.70;99.90
61201;DHT22;47065;52.898;6.992;2022-10-17T04:18:46;12.70;99.90
61201;DHT22;47065;52.898;6.992;2022-10-17T04:21:12;12.70;99.90
61201;DHT22;47065;52.898;6.992;2022-10-17T04:23:38;12.70;99.90
61201;DHT22;47065;52.898;6.992;2022-10-17T04:26:05;12.70;99.90
61201;DHT22;47065;52.898;6.992;2022-10-17T04:28:31;12.70;99.90
61201;DHT22;47065;52.898;6.992;2022-10-17T04:31:01;12.80;99.90
61201;DHT22;47065;52.898;6.992;2022-10-17T04:33:27;12.70;99.90
61201;DHT22;47065;52.898;6.992;2022-10-17T04:36:07;12.70;99.90
61201;DHT22;47065;52.898;6.992;2022-10-17T04:38:34;12.70;99.90
61201;DHT22;47065;52.898;6.992;2022-10-17T04:41:02;12.70;99.90
61201;DHT22;47065;52.898;6.992;2022-10-17T04:43:32;12.80;99.90
61201;DHT22;47065;52.898;6.992;2022-10-17T04:45:59;12.70;99.90
61201;DHT22;47065;52.898;6.992;2022-10-17T04:48:26;12.80;99.90
61201;DHT22;47065;52.898;6.992;2022-10-17T04:50:57;12.80;99.90
61201;DHT22;47065;52.898;6.992;2022-10-17T04:53:24;12.80;99.90
61201;DHT22;47065;52.898;6.992;2022-10-17T04:55:50;12.90;99.90
61201;DHT22;47065;52.898;6.992;2022-10-17T04:58:16;12.90;99.90
61201;DHT22;47065;52.898;6.992;2022-10-17T05:00:42;12.90;99.90
61201;DHT22;47065;52.898;6.992;2022-10-17T05:03:08;12.90;99.90
61201;DHT22;47065;52.898;6.992;2022-10-17T05:05:37;12.90;99.90
61201;DHT22;47065;52.898;6.992;2022-10-17T05:08:03;12.90;99.90
61201;DHT22;47065;52.898;6.992;2022-10-17T05:10:29;13.00;99.90
61201;DHT22;47065;52.898;6.992;2022-10-17T05:12:54;13.00;99.90
61201;DHT22;47065;52.898;6.992;2022-10-17T05:15:20;13.00;99.90
61201;DHT22;47065;52.898;6.992;2022-10-17T05:17:45;13.00;99.90
61201;DHT22;47065;52.898;6.992;2022-10-17T05:20:11;13.00;99.90
61201;DHT22;47065;52.898;6.992;2022-10-17T05:22:37;13.00;99.90
61201;DHT22;47065;52.898;6.992;2022-10-17T05:25:02;13.10;99.90
61201;DHT22;47065;52.898;6.992;2022-10-17T05:27:28;13.20;99.90
61201;DHT22;47065;52.898;6.992;2022-10-17T05:29:54;13.20;99.90
61201;DHT22;47065;52.898;6.992;2022-10-17T05:32:19;13.30;99.90
61201;DHT22;47065;52.898;6.992;2022-10-17T05:34:45;13.30;99.90
61201;DHT22;47065;52.898;6.992;2022-10-17T05:37:13;13.40;99.90
61201;DHT22;47065;52.898;6.992;2022-10-17T05:39:39;13.40;99.90
61201;DHT22;47065;52.898;6.992;2022-10-17T05:42:04;13.50;99.90
61201;DHT22;47065;52.898;6.992;2022-10-17T05:44:31;13.50;99.90
61201;DHT22;47065;52.898;6.992;2022-10-17T05:46:57;13.50;99.90
61201;DHT22;47065;52.898;6.992;2022-10-17T05:49:23;13.50;99.90
61201;DHT22;47065;52.898;6.992;2022-10-17T05:51:49;13.60;99.90
61201;DHT22;47065;52.898;6.992;2022-10-17T05:54:14;13.60;99.90
61201;DHT22;47065;52.898;6.992;2022-10-17T05:56:40;13.60;99.90
61201;DHT22;47065;52.898;6.992;2022-10-17T05:59:05;13.70;99.90
61201;DHT22;47065;52.898;6.992;2022-10-17T06:01:31;13.70;99.90
61201;DHT22;47065;52.898;6.992;2022-10-17T06:03:56;13.70;99.90
61201;DHT22;47065;52.898;6.992;2022-10-17T06:06:22;13.70;99.90
61201;DHT22;47065;52.898;6.992;2022-10-17T06:08:48;13.70;99.90
61201;DHT22;47065;52.898;6.992;2022-10-17T06:11:13;13.80;99.90
61201;DHT22;47065;52.898;6.992;2022-10-17T06:13:39;13.80;99.90
61201;DHT22;47065;52.898;6.992;2022-10-17T06:16:05;13.80;99.90
61201;DHT22;47065;52.898;6.992;2022-10-17T06:18:31;13.80;99.90
61201;DHT22;47065;52.898;6.992;2022-10-17T06:21:05;13.80;99.90
61201;DHT22;47065;52.898;6.992;2022-10-17T06:23:31;13.90;99.90
61201;DHT22;47065;52.898;6.992;2022-10-17T06:25:58;14.00;99.90
61201;DHT22;47065;52.898;6.992;2022-10-17T06:28:24;13.90;99.90
61201;DHT22;47065;52.898;6.992;2022-10-17T06:30:50;14.00;99.90
61201;DHT22;47065;52.898;6.992;2022-10-17T06:33:16;14.10;99.90
61201;DHT22;47065;52.898;6.992;2022-10-17T06:35:42;14.10;99.90
61201;DHT22;47065;52.898;6.992;2022-10-17T06:38:10;14.20;99.90
61201;DHT22;47065;52.898;6.992;2022-10-17T06:40:36;14.20;99.90
61201;DHT22;47065;52.898;6.992;2022-10-17T06:43:01;14.20;99.90
61201;DHT22;47065;52.898;6.992;2022-10-17T06:45:27;14.30;99.90
61201;DHT22;47065;52.898;6.992;2022-10-17T06:47:52;14.40;99.90
61201;DHT22;47065;52.898;6.992;2022-10-17T06:50:18;14.40;99.90
61201;DHT22;47065;52.898;6.992;2022-10-17T06:52:44;14.40;99.90
61201;DHT22;47065;52.898;6.992;2022-10-17T06:55:09;14.40;99.90
61201;DHT22;47065;52.898;6.992;2022-10-17T06:57:35;14.50;99.90
61201;DHT22;47065;52.898;6.992;2022-10-17T07:00:01;14.60;99.90
61201;DHT22;47065;52.898;6.992;2022-10-17T07:02:26;14.60;99.90
61201;DHT22;47065;52.898;6.992;2022-10-17T07:04:52;14.60;99.90
61201;DHT22;47065;52.898;6.992;2022-10-17T07:07:17;14.60;99.90
61201;DHT22;47065;52.898;6.992;2022-10-17T07:09:43;14.70;99.90
61201;DHT22;47065;52.898;6.992;2022-10-17T07:12:09;14.70;99.90
61201;DHT22;47065;52.898;6.992;2022-10-17T07:14:37;14.90;99.90
61201;DHT22;47065;52.898;6.992;2022-10-17T07:17:02;14.80;99.90
61201;DHT22;47065;52.898;6.992;2022-10-17T07:19:28;14.80;99.90
61201;DHT22;47065;52.898;6.992;2022-10-17T07:21:54;14.90;99.90
61201;DHT22;47065;52.898;6.992;2022-10-17T07:24:20;15.00;99.90
61201;DHT22;47065;52.898;6.992;2022-10-17T07:26:46;15.00;99.90
61201;DHT22;47065;52.898;6.992;2022-10-17T07:29:11;15.00;99.90
61201;DHT22;47065;52.898;6.992;2022-10-17T07:31:37;15.10;99.90
61201;DHT22;47065;52.898;6.992;2022-10-17T07:34:03;15.20;99.90
61201;DHT22;47065;52.898;6.992;2022-10-17T07:36:29;15.20;99.90
61201;DHT22;47065;52.898;6.992;2022-10-17T07:38:54;15.30;99.90
61201;DHT22;47065;52.898;6.992;2022-10-17T07:41:20;15.40;99.90
61201;DHT22;47065;52.898;6.992;2022-10-17T07:43:46;15.40;99.90
61201;DHT22;47065;52.898;6.992;2022-10-17T07:46:12;15.60;99.90
61201;DHT22;47065;52.898;6.992;2022-10-17T07:48:38;15.70;99.90
61201;DHT22;47065;52.898;6.992;2022-10-17T07:51:06;15.80;99.90
61201;DHT22;47065;52.898;6.992;2022-10-17T07:53:37;15.80;99.90
61201;DHT22;47065;52.898;6.992;2022-10-17T07:56:05;15.90;99.90
61201;DHT22;47065;52.898;6.992;2022-10-17T07:58:31;16.10;99.90
61201;DHT22;47065;52.898;6.992;2022-10-17T08:01:03;16.20;99.90
61201;DHT22;47065;52.898;6.992;2022-10-17T08:03:29;16.30;99.90
61201;DHT22;47065;52.898;6.992;2022-10-17T08:06:00;16.50;99.90
61201;DHT22;47065;52.898;6.992;2022-10-17T08:08:25;16.60;99.90
61201;DHT22;47065;52.898;6.992;2022-10-17T08:10:52;16.60;99.90
61201;DHT22;47065;52.898;6.992;2022-10-17T08:13:19;16.70;99.90
61201;DHT22;47065;52.898;6.992;2022-10-17T08:15:45;16.70;99.90
61201;DHT22;47065;52.898;6.992;2022-10-17T08:18:13;16.80;99.90
61201;DHT22;47065;52.898;6.992;2022-10-17T08:20:40;16.80;99.90
61201;DHT22;47065;52.898;6.992;2022-10-17T08:23:06;16.80;99.90
61201;DHT22;47065;52.898;6.992;2022-10-17T08:25:31;16.90;99.90
61201;DHT22;47065;52.898;6.992;2022-10-17T08:27:58;16.90;99.90
61201;DHT22;47065;52.898;6.992;2022-10-17T08:30:23;16.90;99.90
61201;DHT22;47065;52.898;6.992;2022-10-17T08:32:49;16.90;99.90
61201;DHT22;47065;52.898;6.992;2022-10-17T08:35:15;17.00;99.90
61201;DHT22;47065;52.898;6.992;2022-10-17T08:37:41;17.00;99.90
61201;DHT22;47065;52.898;6.992;2022-10-17T08:40:13;17.00;99.90
61201;DHT22;47065;52.898;6.992;2022-10-17T08:42:54;17.00;99.90
61201;DHT22;47065;52.898;6.992;2022-10-17T08:45:31;17.00;99.90
61201;DHT22;47065;52.898;6.992;2022-10-17T08:48:00;17.00;99.90
61201;DHT22;47065;52.898;6.992;2022-10-17T08:53:20;17.10;99.90
61201;DHT22;47065;52.898;6.992;2022-10-17T08:55:49;17.10;99.90
61201;DHT22;47065;52.898;6.992;2022-10-17T08:58:28;17.10;99.90
61201;DHT22;47065;52.898;6.992;2022-10-17T09:06:35;17.10;99.90
61201;DHT22;47065;52.898;6.992;2022-10-17T09:17:52;17.30;99.90
61201;DHT22;47065;52.898;6.992;2022-10-17T09:20:22;17.40;99.90
61201;DHT22;47065;52.898;6.992;2022-10-17T09:25:25;17.40;99.90
61201;DHT22;47065;52.898;6.992;2022-10-17T09:33:19;17.50;99.90
61201;DHT22;47065;52.898;6.992;2022-10-17T09:35:48;17.60;99.90
61201;DHT22;47065;52.898;6.992;2022-10-17T09:38:19;17.70;99.90
61201;DHT22;47065;52.898;6.992;2022-10-17T09:40:51;17.70;99.90
61201;DHT22;47065;52.898;6.992;2022-10-17T09:43:18;17.80;99.90
61201;DHT22;47065;52.898;6.992;2022-10-17T09:46:16;17.80;99.90
61201;DHT22;47065;52.898;6.992;2022-10-17T09:48:46;17.90;99.90
61201;DHT22;47065;52.898;6.992;2022-10-17T09:51:13;18.00;99.90
61201;DHT22;47065;52.898;6.992;2022-10-17T09:53:42;18.00;99.90
61201;DHT22;47065;52.898;6.992;2022-10-17T09:56:15;18.00;99.90
61201;DHT22;47065;52.898;6.992;2022-10-17T09:58:42;18.10;99.90
61201;DHT22;47065;52.898;6.992;2022-10-17T10:01:22;18.10;99.90
61201;DHT22;47065;52.898;6.992;2022-10-17T10:04:10;18.20;99.90
61201;DHT22;47065;52.898;6.992;2022-10-17T10:06:37;18.20;99.90
61201;DHT22;47065;52.898;6.992;2022-10-17T10:09:04;18.20;99.90
61201;DHT22;47065;52.898;6.992;2022-10-17T10:11:47;18.20;99.90
61201;DHT22;47065;52.898;6.992;2022-10-17T10:16:53;18.20;99.90
61201;DHT22;47065;52.898;6.992;2022-10-17T10:19:34;18.20;99.90
61201;DHT22;47065;52.898;6.992;2022-10-17T10:22:15;18.20;99.90
61201;DHT22;47065;52.898;6.992;2022-10-17T10:24:41;18.10;99.90
61201;DHT22;47065;52.898;6.992;2022-10-17T10:27:12;18.10;99.90
61201;DHT22;47065;52.898;6.992;2022-10-17T10:29:48;18.00;99.90
61201;DHT22;47065;52.898;6.992;2022-10-17T10:32:27;18.00;99.90
61201;DHT22;47065;52.898;6.992;2022-10-17T10:35:05;17.80;99.90
61201;DHT22;47065;52.898;6.992;2022-10-17T10:37:40;17.70;99.90
61201;DHT22;47065;52.898;6.992;2022-10-17T10:42:40;17.60;99.90
61201;DHT22;47065;52.898;6.992;2022-10-17T10:45:14;17.50;99.90
61201;DHT22;47065;52.898;6.992;2022-10-17T10:47:55;17.40;99.90
61201;DHT22;47065;52.898;6.992;2022-10-17T10:50:37;17.40;99.90
61201;DHT22;47065;52.898;6.992;2022-10-17T10:58:53;17.20;99.90
61201;DHT22;47065;52.898;6.992;2022-10-17T11:07:05;17.00;99.90
61201;DHT22;47065;52.898;6.992;2022-10-17T11:09:52;16.90;99.90
61201;DHT22;47065;52.898;6.992;2022-10-17T11:12:49;16.90;99.90
61201;DHT22;47065;52.898;6.992;2022-10-17T11:15:30;16.80;99.90
61201;DHT22;47065;52.898;6.992;2022-10-17T11:18:23;16.80;99.90
61201;DHT22;47065;52.898;6.992;2022-10-17T11:20:58;16.80;99.90
61201;DHT22;47065;52.898;6.992;2022-10-17T11:23:46;16.70;99.90
61201;DHT22;47065;52.898;6.992;2022-10-17T11:26:22;16.70;99.90
61201;DHT22;47065;52.898;6.992;2022-10-17T11:28:58;16.70;99.90
61201;DHT22;47065;52.898;6.992;2022-10-17T11:31:47;16.70;99.90
61201;DHT22;47065;52.898;6.992;2022-10-17T11:34:25;16.70;99.90
61201;DHT22;47065;52.898;6.992;2022-10-17T11:36:56;16.70;99.90
61201;DHT22;47065;52.898;6.992;2022-10-17T11:42:24;16.70;99.90
61201;DHT22;47065;52.898;6.992;2022-10-17T11:44:59;16.70;99.90
61201;DHT22;47065;52.898;6.992;2022-10-17T11:50:41;16.70;99.90
61201;DHT22;47065;52.898;6.992;2022-10-17T11:55:48;16.70;99.90
61201;DHT22;47065;52.898;6.992;2022-10-17T12:01:42;16.70;99.90
61201;DHT22;47065;52.898;6.992;2022-10-17T12:05:03;16.70;99.90
61201;DHT22;47065;52.898;6.992;2022-10-17T12:13:52;16.70;99.90
61201;DHT22;47065;52.898;6.992;2022-10-17T12:19:27;16.80;99.90
61201;DHT22;47065;52.898;6.992;2022-10-17T12:25:32;16.70;99.90
61201;DHT22;47065;52.898;6.992;2022-10-17T12:31:05;16.70;99.90
61201;DHT22;47065;52.898;6.992;2022-10-17T12:34:13;16.70;99.90
61201;DHT22;47065;52.898;6.992;2022-10-17T12:36:55;16.60;99.90
61201;DHT22;47065;52.898;6.992;2022-10-17T12:39:48;16.60;99.90
61201;DHT22;47065;52.898;6.992;2022-10-17T12:42:29;16.60;99.90
61201;DHT22;47065;52.898;6.992;2022-10-17T12:45:01;16.60;99.90
61201;DHT22;47065;52.898;6.992;2022-10-17T12:47:38;16.70;99.90
61201;DHT22;47065;52.898;6.992;2022-10-17T12:53:20;16.70;99.90
61201;DHT22;47065;52.898;6.992;2022-10-17T12:55:48;16.80;99.90
61201;DHT22;47065;52.898;6.992;2022-10-17T12:58:31;16.80;99.90
61201;DHT22;47065;52.898;6.992;2022-10-17T13:00:59;16.80;99.90
61201;DHT22;47065;52.898;6.992;2022-10-17T13:03:31;16.80;99.90
61201;DHT22;47065;52.898;6.992;2022-10-17T13:06:05;16.80;99.90
61201;DHT22;47065;52.898;6.992;2022-10-17T13:08:41;16.90;99.90
61201;DHT22;47065;52.898;6.992;2022-10-17T13:11:11;16.90;99.90
61201;DHT22;47065;52.898;6.992;2022-10-17T13:13:48;16.90;99.90
61201;DHT22;47065;52.898;6.992;2022-10-17T13:16:37;16.90;99.90
61201;DHT22;47065;52.898;6.992;2022-10-17T13:19:15;16.90;99.90
61201;DHT22;47065;52.898;6.992;2022-10-17T13:22:01;16.90;99.90
61201;DHT22;47065;52.898;6.992;2022-10-17T13:28:11;16.90;99.90
61201;DHT22;47065;52.898;6.992;2022-10-17T13:31:00;16.90;99.90
61201;DHT22;47065;52.898;6.992;2022-10-17T13:33:36;16.90;99.90
61201;DHT22;47065;52.898;6.992;2022-10-17T13:36:13;16.90;99.90
61201;DHT22;47065;52.898;6.992;2022-10-17T13:38:53;16.90;99.90
61201;DHT22;47065;52.898;6.992;2022-10-17T13:41:24;17.00;99.90
61201;DHT22;47065;52.898;6.992;2022-10-17T13:43:58;16.90;99.90
61201;DHT22;47065;52.898;6.992;2022-10-17T13:49:41;17.00;99.90
61201;DHT22;47065;52.898;6.992;2022-10-17T13:52:17;16.90;99.90
61201;DHT22;47065;52.898;6.992;2022-10-17T13:54:52;17.00;99.90
61201;DHT22;47065;52.898;6.992;2022-10-17T13:57:29;17.10;99.90
61201;DHT22;47065;52.898;6.992;2022-10-17T14:00:09;17.00;99.90
61201;DHT22;47065;52.898;6.992;2022-10-17T14:02:45;17.00;99.90
61201;DHT22;47065;52.898;6.992;2022-10-17T14:05:18;17.00;99.90
61201;DHT22;47065;52.898;6.992;2022-10-17T14:07:50;17.00;99.90
61201;DHT22;47065;52.898;6.992;2022-10-17T14:13:53;17.00;99.90
61201;DHT22;47065;52.898;6.992;2022-10-17T14:16:41;17.00;99.90
61201;DHT22;47065;52.898;6.992;2022-10-17T14:19:25;17.00;99.90
61201;DHT22;47065;52.898;6.992;2022-10-17T14:24:45;17.00;99.90
61201;DHT22;47065;52.898;6.992;2022-10-17T14:27:33;17.00;99.90
61201;DHT22;47065;52.898;6.992;2022-10-17T14:32:54;16.80;99.90
61201;DHT22;47065;52.898;6.992;2022-10-17T14:35:21;16.70;99.90
61201;DHT22;47065;52.898;6.992;2022-10-17T14:37:48;16.60;99.90
61201;DHT22;47065;52.898;6.992;2022-10-17T14:40:20;16.50;99.90
61201;DHT22;47065;52.898;6.992;2022-10-17T14:42:48;16.40;99.90
61201;DHT22;47065;52.898;6.992;2022-10-17T14:45:30;16.40;99.90
61201;DHT22;47065;52.898;6.992;2022-10-17T14:48:15;16.30;99.90
61201;DHT22;47065;52.898;6.992;2022-10-17T14:50:41;16.20;99.90
61201;DHT22;47065;52.898;6.992;2022-10-17T14:55:38;16.00;99.90
61201;DHT22;47065;52.898;6.992;2022-10-17T14:58:40;16.00;99.90
61201;DHT22;47065;52.898;6.992;2022-10-17T15:04:36;15.80;99.90
61201;DHT22;47065;52.898;6.992;2022-10-17T15:07:02;15.70;99.90
61201;DHT22;47065;52.898;6.992;2022-10-17T15:09:27;15.70;99.90
61201;DHT22;47065;52.898;6.992;2022-10-17T15:11:54;15.70;99.90
61201;DHT22;47065;52.898;6.992;2022-10-17T15:14:23;15.60;99.90
61201;DHT22;47065;52.898;6.992;2022-10-17T15:16:49;15.60;99.90
61201;DHT22;47065;52.898;6.992;2022-10-17T15:19:14;15.60;99.90
61201;DHT22;47065;52.898;6.992;2022-10-17T15:21:43;15.50;99.90
61201;DHT22;47065;52.898;6.992;2022-10-17T15:24:08;15.50;99.90
61201;DHT22;47065;52.898;6.992;2022-10-17T15:26:34;15.50;99.90
61201;DHT22;47065;52.898;6.992;2022-10-17T15:29:03;15.50;99.90
61201;DHT22;47065;52.898;6.992;2022-10-17T15:31:32;15.50;99.90
61201;DHT22;47065;52.898;6.992;2022-10-17T15:34:21;15.50;99.90
61201;DHT22;47065;52.898;6.992;2022-10-17T15:36:49;15.50;99.90
61201;DHT22;47065;52.898;6.992;2022-10-17T15:39:24;15.50;99.90
61201;DHT22;47065;52.898;6.992;2022-10-17T15:41:50;15.50;99.90
61201;DHT22;47065;52.898;6.992;2022-10-17T15:44:15;15.50;99.90
61201;DHT22;47065;52.898;6.992;2022-10-17T15:46:42;15.50;99.90
61201;DHT22;47065;52.898;6.992;2022-10-17T15:49:13;15.40;99.90
61201;DHT22;47065;52.898;6.992;2022-10-17T15:51:40;15.40;99.90
61201;DHT22;47065;52.898;6.992;2022-10-17T15:54:08;15.40;99.90
61201;DHT22;47065;52.898;6.992;2022-10-17T15:56:40;15.30;99.90
61201;DHT22;47065;52.898;6.992;2022-10-17T15:59:30;15.40;99.90
61201;DHT22;47065;52.898;6.992;2022-10-17T16:05:53;15.30;99.90
61201;DHT22;47065;52.898;6.992;2022-10-17T16:11:58;15.30;99.90
61201;DHT22;47065;52.898;6.992;2022-10-17T16:14:48;15.30;99.90
61201;DHT22;47065;52.898;6.992;2022-10-17T16:21:43;15.30;99.90
61201;DHT22;47065;52.898;6.992;2022-10-17T16:24:17;15.20;99.90
61201;DHT22;47065;52.898;6.992;2022-10-17T16:29:59;15.10;99.90
61201;DHT22;47065;52.898;6.992;2022-10-17T16:32:50;15.10;99.90
61201;DHT22;47065;52.898;6.992;2022-10-17T16:35:35;15.10;99.90
61201;DHT22;47065;52.898;6.992;2022-10-17T16:38:28;15.00;99.90
61201;DHT22;47065;52.898;6.992;2022-10-17T16:40:57;15.00;99.90
61201;DHT22;47065;52.898;6.992;2022-10-17T16:43:42;14.90;99.90
61201;DHT22;47065;52.898;6.992;2022-10-17T16:46:21;14.90;99.90
61201;DHT22;47065;52.898;6.992;2022-10-17T16:49:19;14.90;99.90
61201;DHT22;47065;52.898;6.992;2022-10-17T16:51:48;14.80;99.90
61201;DHT22;47065;52.898;6.992;2022-10-17T16:54:35;14.80;99.90
61201;DHT22;47065;52.898;6.992;2022-10-17T17:00:32;14.70;99.90
61201;DHT22;47065;52.898;6.992;2022-10-17T17:03:50;14.70;99.90
61201;DHT22;47065;52.898;6.992;2022-10-17T17:06:29;14.70;99.90
61201;DHT22;47065;52.898;6.992;2022-10-17T17:09:53;14.60;99.90
61201;DHT22;47065;52.898;6.992;2022-10-17T17:12:56;14.60;99.90
61201;DHT22;47065;52.898;6.992;2022-10-17T17:22:48;14.50;99.90
61201;DHT22;47065;52.898;6.992;2022-10-17T17:25:32;14.50;99.90
61201;DHT22;47065;52.898;6.992;2022-10-17T17:35:51;14.30;99.90
61201;DHT22;47065;52.898;6.992;2022-10-17T17:49:08;14.20;99.90
61201;DHT22;47065;52.898;6.992;2022-10-17T17:52:02;14.20;99.90
61201;DHT22;47065;52.898;6.992;2022-10-17T17:55:14;14.20;99.90
61201;DHT22;47065;52.898;6.992;2022-10-17T17:58:29;14.20;99.90
61201;DHT22;47065;52.898;6.992;2022-10-17T18:08:28;14.30;99.90
61201;DHT22;47065;52.898;6.992;2022-10-17T18:11:26;14.30;99.90
61201;DHT22;47065;52.898;6.992;2022-10-17T18:23:47;14.40;99.90
61201;DHT22;47065;52.898;6.992;2022-10-17T18:26:42;14.40;99.90
61201;DHT22;47065;52.898;6.992;2022-10-17T18:30:04;14.40;99.90
61201;DHT22;47065;52.898;6.992;2022-10-17T18:33:30;14.50;99.90
61201;DHT22;47065;52.898;6.992;2022-10-17T18:40:24;14.40;99.90
61201;DHT22;47065;52.898;6.992;2022-10-17T18:43:12;14.40;99.90
61201;DHT22;47065;52.898;6.992;2022-10-17T18:46:23;14.40;99.90
61201;DHT22;47065;52.898;6.992;2022-10-17T18:49:12;14.40;99.90
61201;DHT22;47065;52.898;6.992;2022-10-17T18:55:33;14.40;99.90
61201;DHT22;47065;52.898;6.992;2022-10-17T18:58:24;14.40;99.90
61201;DHT22;47065;52.898;6.992;2022-10-17T19:01:32;14.40;99.90
61201;DHT22;47065;52.898;6.992;2022-10-17T19:04:43;14.40;99.90
61201;DHT22;47065;52.898;6.992;2022-10-17T19:07:51;14.40;99.90
61201;DHT22;47065;52.898;6.992;2022-10-17T19:24:43;14.30;99.90
61201;DHT22;47065;52.898;6.992;2022-10-17T19:27:45;14.40;99.90
61201;DHT22;47065;52.898;6.992;2022-10-17T19:31:25;14.40;99.90
61201;DHT22;47065;52.898;6.992;2022-10-17T19:38:14;14.40;99.90